Time;durP1;ratioP1;P1;durP2;ratioP2;P2;SDS_P1;SDS_P2;PMS_P1;PMS_P2;Temp;Humidity;BMP_temperature;BMP_pressure;BME280_temperature;BME280_humidity;BME280_pressure;Samples;Min_cycle;Max_cycle;Signal;HPM_P1;HPM_P2
2024/04/09 00:01:48;;;;;;;11.40;4.80;;;;;;;18.62;77.70;100306.53;5487274;26;20009;-48
2024/04/09 00:04:13;;;;;;;12.23;4.60;;;;;;;18.80;77.38;100310.41;5488136;26;19994;-44
2024/04/09 00:06:39;;;;;;;10.55;3.40;;;;;;;18.83;77.36;100310.34;5487281;26;20415;-46
2024/04/09 00:09:05;;;;;;;8.27;2.95;;;;;;;18.59;78.15;100319.84;5488095;26;20009;-41
2024/04/09 00:11:31;;;;;;;5.20;2.20;;;;;;;18.83;77.60;100332.34;5487126;26;19998;-48
2024/04/09 00:13:58;;;;;;;5.50;1.70;;;;;;;18.69;77.95;100325.69;5488548;26;20541;-46
2024/04/09 00:16:25;;;;;;;4.18;1.40;;;;;;;18.76;77.47;100321.97;5488217;26;20033;-49
2024/04/09 00:18:53;;;;;;;7.75;1.90;;;;;;;18.67;77.86;100312.53;5487048;26;20030;-46
2024/04/09 00:21:20;;;;;;;6.78;1.95;;;;;;;18.45;79.21;100314.03;5487694;26;20006;-44
2024/04/09 00:23:47;;;;;;;4.20;1.85;;;;;;;18.73;77.69;100307.06;5486730;26;20073;-45
2024/04/09 00:26:13;;;;;;;4.57;2.03;;;;;;;18.56;78.06;100310.22;5486969;26;19998;-44
2024/04/09 00:28:38;;;;;;;3.85;1.48;;;;;;;18.60;77.77;100326.84;5487277;26;19998;-46
2024/04/09 00:31:04;;;;;;;4.80;1.23;;;;;;;18.56;78.22;100341.88;5486574;26;20025;-46
2024/04/09 00:33:29;;;;;;;3.95;1.35;;;;;;;18.56;78.24;100344.53;5486424;26;20157;-44
2024/04/09 00:35:55;;;;;;;4.80;1.30;;;;;;;18.45;77.94;100349.22;5485989;26;20839;-45
2024/04/09 00:38:23;;;;;;;2.47;1.00;;;;;;;18.35;78.43;100352.16;5486104;26;20013;-47
2024/04/09 00:40:49;;;;;;;3.70;1.20;;;;;;;18.35;78.30;100345.09;5486608;26;20010;-46
2024/04/09 00:43:14;;;;;;;2.90;1.08;;;;;;;18.56;77.58;100343.66;5484958;26;20006;-48
2024/04/09 00:45:43;;;;;;;3.65;1.20;;;;;;;18.61;77.25;100345.25;5485729;26;20028;-45
2024/04/09 00:48:11;;;;;;;3.40;1.30;;;;;;;18.62;77.15;100349.63;5486483;26;19998;-46
2024/04/09 00:50:41;;;;;;;4.78;1.30;;;;;;;18.61;76.89;100353.19;5485736;26;20024;-47
2024/04/09 00:53:08;;;;;;;4.72;1.20;;;;;;;18.49;76.98;100352.63;5486085;26;20013;-48
2024/04/09 00:55:34;;;;;;;3.40;1.30;;;;;;;18.46;77.14;100361.50;5485826;26;20350;-45
2024/04/09 00:58:03;;;;;;;6.25;1.48;;;;;;;18.55;76.80;100363.03;5486785;26;20013;-43
2024/04/09 01:00:28;;;;;;;5.43;1.50;;;;;;;18.07;79.29;100376.59;5485374;26;20486;-44
2024/04/09 01:02:54;;;;;;;5.20;1.40;;;;;;;18.23;79.42;100377.09;5486178;26;20028;-46
2024/04/09 01:05:19;;;;;;;3.58;1.40;;;;;;;18.24;79.02;100381.44;5485687;26;20368;-43
2024/04/09 01:07:45;;;;;;;5.40;1.50;;;;;;;17.72;79.99;100392.41;5485334;26;20013;-46
2024/04/09 01:10:10;;;;;;;5.25;1.80;;;;;;;17.60;80.89;100387.38;5486316;26;20021;-45
2024/04/09 01:12:36;;;;;;;4.95;1.60;;;;;;;17.75;79.79;100397.59;5485418;26;19994;-47
2024/04/09 01:15:02;;;;;;;4.60;1.60;;;;;;;17.95;78.67;100408.53;5485601;26;19999;-46
2024/04/09 01:17:28;;;;;;;3.58;1.50;;;;;;;17.73;78.59;100416.09;5485678;26;20468;-46
2024/04/09 01:19:54;;;;;;;6.05;1.60;;;;;;;17.83;78.56;100416.75;5484957;26;20034;-44
2024/04/09 01:22:19;;;;;;;4.57;1.65;;;;;;;18.29;76.49;100440.25;5485771;26;20598;-44
2024/04/09 01:24:44;;;;;;;5.05;1.40;;;;;;;18.22;76.35;100441.31;5484251;26;20020;-44
2024/04/09 01:27:14;;;;;;;2.72;1.50;;;;;;;17.88;76.74;100427.19;5485955;26;20330;-44
2024/04/09 01:29:43;;;;;;;5.32;1.40;;;;;;;17.87;77.08;100421.03;5485435;26;20373;-46
2024/04/09 01:32:09;;;;;;;6.20;1.60;;;;;;;17.69;77.23;100416.19;5485660;26;20065;-44
2024/04/09 01:34:37;;;;;;;3.95;1.50;;;;;;;17.74;76.54;100409.94;5485213;26;20002;-46
2024/04/09 01:37:03;;;;;;;4.63;1.40;;;;;;;17.55;76.89;100395.41;5485369;26;19994;-46
2024/04/09 01:39:28;;;;;;;3.85;1.60;;;;;;;17.70;75.91;100389.78;5485357;26;19998;-44
2024/04/09 01:41:55;;;;;;;3.85;1.52;;;;;;;17.69;76.64;100372.25;5486321;26;20529;-44
2024/04/09 01:44:21;;;;;;;7.53;1.58;;;;;;;17.31;76.28;100367.84;5485795;26;20396;-45
2024/04/09 01:46:48;;;;;;;6.10;1.90;;;;;;;17.62;75.52;100409.34;5485600;26;20024;-44
2024/04/09 01:49:18;;;;;;;7.15;1.88;;;;;;;17.55;75.57;100434.94;5486173;26;20448;-46
2024/04/09 01:51:44;;;;;;;7.45;1.70;;;;;;;17.63;74.84;100450.59;5485261;26;19998;-47
2024/04/09 01:54:10;;;;;;;6.60;1.63;;;;;;;17.26;75.38;100454.00;5485642;26;20052;-44
2024/04/09 01:56:35;;;;;;;7.82;1.63;;;;;;;16.73;76.86;100468.19;5485310;26;19998;-44
2024/04/09 01:59:01;;;;;;;6.22;1.63;;;;;;;16.94;74.98;100465.19;5486110;26;20009;-44
2024/04/09 02:01:26;;;;;;;5.35;1.70;;;;;;;17.31;74.15;100459.19;5486184;26;19998;-45
2024/04/09 02:03:56;;;;;;;8.85;1.83;;;;;;;17.29;73.89;100453.06;5486117;26;20010;-45
2024/04/09 02:06:23;;;;;;;6.40;1.70;;;;;;;16.61;75.82;100463.16;5485711;26;20002;-45
2024/04/09 02:08:49;;;;;;;7.65;1.85;;;;;;;17.02;76.45;100468.50;5485701;26;20006;-45
2024/04/09 02:11:15;;;;;;;5.82;1.50;;;;;;;16.83;75.23;100467.13;5486045;26;20013;-44
2024/04/09 02:13:41;;;;;;;7.53;2.00;;;;;;;16.63;76.45;100466.66;5485549;26;20006;-43
2024/04/09 02:16:08;;;;;;;7.82;1.65;;;;;;;16.93;75.82;100475.75;5485658;26;20010;-47
2024/04/09 02:18:35;;;;;;;6.97;1.60;;;;;;;16.82;75.38;100475.94;5484787;26;20010;-48
2024/04/09 02:21:01;;;;;;;11.25;2.20;;;;;;;16.69;74.97;100473.56;5484985;26;19998;-44
2024/04/09 02:23:27;;;;;;;8.32;2.10;;;;;;;16.49;76.41;100469.47;5485002;26;20022;-46
2024/04/09 02:25:52;;;;;;;7.20;1.83;;;;;;;16.81;75.93;100474.22;5484012;26;20002;-46
2024/04/09 02:28:18;;;;;;;6.47;1.92;;;;;;;16.82;75.92;100465.41;5484763;26;20003;-45
2024/04/09 02:30:43;;;;;;;10.60;2.33;;;;;;;16.63;76.25;100477.16;5484369;26;20006;-48
2024/04/09 02:33:08;;;;;;;12.23;2.17;;;;;;;16.31;76.77;100482.06;5485325;26;20071;-46
2024/04/09 02:35:34;;;;;;;7.85;2.70;;;;;;;16.69;75.96;100476.19;5484051;26;20002;-47
2024/04/09 02:38:00;;;;;;;8.13;2.20;;;;;;;16.72;75.39;100478.75;5485552;26;20030;-46
2024/04/09 02:40:25;;;;;;;10.50;2.20;;;;;;;16.69;74.94;100486.72;5485228;26;20002;-46
2024/04/09 02:42:51;;;;;;;9.18;2.13;;;;;;;16.41;75.55;100495.03;5484631;26;20473;-44
2024/04/09 02:45:18;;;;;;;9.32;2.33;;;;;;;16.32;76.28;100475.91;5484345;26;20419;-45
2024/04/09 02:47:43;;;;;;;8.70;2.65;;;;;;;16.44;74.42;100480.97;5484215;26;20031;-45
2024/04/09 02:50:09;;;;;;;8.90;1.95;;;;;;;16.37;74.78;100490.72;5484781;26;19998;-45
2024/04/09 02:52:34;;;;;;;9.63;1.85;;;;;;;16.69;73.41;100471.81;5484172;26;20358;-44
2024/04/09 02:55:00;;;;;;;5.55;1.58;;;;;;;16.42;73.15;100462.56;5484719;26;20017;-44
2024/04/09 02:57:26;;;;;;;9.07;2.03;;;;;;;16.31;73.25;100459.25;5484049;26;20002;-49
2024/04/09 02:59:52;;;;;;;7.97;1.50;;;;;;;15.88;72.52;100432.78;5483372;26;20012;-46
2024/04/09 03:02:18;;;;;;;9.00;1.77;;;;;;;16.13;71.60;100454.31;5484006;26;20325;-46
2024/04/09 03:04:44;;;;;;;9.02;1.80;;;;;;;16.33;71.64;100459.25;5483022;26;20002;-46
2024/04/09 03:07:10;;;;;;;11.05;1.52;;;;;;;16.19;72.33;100465.59;5483524;26;20044;-46
2024/04/09 03:09:35;;;;;;;11.75;1.85;;;;;;;16.45;70.90;100473.06;5484173;26;20008;-45
2024/04/09 03:12:01;;;;;;;8.38;1.65;;;;;;;16.61;70.32;100478.94;5484145;26;20013;-43
2024/04/09 03:14:28;;;;;;;10.50;1.55;;;;;;;16.53;70.69;100481.66;5484295;26;20030;-45
2024/04/09 03:16:53;;;;;;;11.43;1.55;;;;;;;16.42;69.98;100481.00;5484085;26;19994;-46
2024/04/09 03:19:18;;;;;;;9.13;1.70;;;;;;;16.66;68.78;100492.88;5482450;26;20505;-46
2024/04/09 03:21:44;;;;;;;8.30;1.65;;;;;;;16.78;68.42;100490.03;5483450;26;20009;-46
2024/04/09 03:24:10;;;;;;;10.52;2.03;;;;;;;16.47;68.82;100491.44;5484344;26;20322;-45
2024/04/09 03:26:35;;;;;;;12.07;1.63;;;;;;;16.27;69.02;100510.19;5483241;26;20046;-47
2024/04/09 03:29:00;;;;;;;13.30;2.13;;;;;;;16.06;69.10;100516.63;5483965;26;20350;-44
2024/04/09 03:31:26;;;;;;;10.00;1.55;;;;;;;16.48;68.10;100519.50;5484179;26;20010;-45
2024/04/09 03:33:51;;;;;;;10.52;2.10;;;;;;;15.65;68.84;100519.84;5483053;26;19998;-46
2024/04/09 03:36:16;;;;;;;9.20;1.58;;;;;;;16.01;68.12;100541.25;5483654;26;19998;-46
2024/04/09 03:38:43;;;;;;;8.30;1.77;;;;;;;15.73;68.22;100532.91;5483265;26;20071;-44
2024/04/09 03:41:09;;;;;;;12.32;1.83;;;;;;;16.14;67.33;100537.56;5483819;26;20027;-49
2024/04/09 03:43:34;;;;;;;10.15;1.63;;;;;;;16.30;66.06;100527.66;5482997;26;20489;-44
2024/04/09 03:46:10;;;;;;;8.27;1.70;;;;;;;16.18;66.14;100526.09;5483216;26;19998;-48
2024/04/09 03:48:46;;;;;;;9.77;1.30;;;;;;;15.94;66.69;100535.22;5486902;26;19994;-46
2024/04/09 03:51:13;;;;;;;11.05;1.77;;;;;;;16.00;66.49;100543.03;5485565;26;19998;-47
2024/04/09 03:53:39;;;;;;;14.43;2.08;;;;;;;16.20;66.63;100546.25;5486999;26;20002;-43
2024/04/09 03:56:06;;;;;;;12.13;2.33;;;;;;;16.39;65.91;100538.06;5487039;26;20540;-45
2024/04/09 03:58:35;;;;;;;7.63;1.63;;;;;;;16.17;66.67;100542.75;5486795;26;20022;-46
2024/04/09 04:01:02;;;;;;;6.78;1.30;;;;;;;16.36;66.89;100532.84;5486642;26;20002;-48
2024/04/09 04:03:29;;;;;;;13.88;1.85;;;;;;;16.36;66.64;100530.22;5486642;26;20100;-48
2024/04/09 04:05:59;;;;;;;10.05;1.55;;;;;;;16.59;65.94;100534.22;5486752;26;19998;-45
2024/04/09 04:08:36;;;;;;;9.23;1.50;;;;;;;16.85;65.44;100536.44;5487033;26;20815;-44
2024/04/09 04:11:03;;;;;;;15.18;1.90;;;;;;;16.65;65.59;100550.84;5487334;26;20456;-45
2024/04/09 04:13:30;;;;;;;13.68;2.03;;;;;;;16.24;67.09;100561.06;5487625;26;20065;-46
2024/04/09 04:16:07;;;;;;;10.48;2.17;;;;;;;16.79;66.23;100581.28;5487030;26;19994;-45
2024/04/09 04:18:37;;;;;;;11.15;1.95;;;;;;;16.40;67.07;100576.66;5486460;26;20074;-48
2024/04/09 04:21:03;;;;;;;12.60;2.25;;;;;;;16.14;68.03;100579.66;5487101;26;20005;-46
2024/04/09 04:23:29;;;;;;;12.05;2.20;;;;;;;16.22;68.33;100569.91;5486553;26;20509;-45
2024/04/09 04:25:54;;;;;;;10.82;2.30;;;;;;;15.88;69.59;100569.47;5486295;26;20006;-45
2024/04/09 04:28:20;;;;;;;14.73;2.08;;;;;;;16.27;68.04;100561.94;5485175;26;20432;-47
2024/04/09 04:30:45;;;;;;;10.07;2.20;;;;;;;16.16;68.31;100578.72;5486311;26;20002;-44
2024/04/09 04:33:10;;;;;;;10.75;2.13;;;;;;;16.11;68.81;100588.44;5485358;26;20006;-46
2024/04/09 04:35:35;;;;;;;11.20;2.42;;;;;;;16.05;69.46;100601.66;5489623;26;19998;-48
2024/04/09 04:38:01;;;;;;;8.60;1.95;;;;;;;16.48;67.63;100612.47;5491491;26;20009;-50
2024/04/09 04:40:26;;;;;;;15.25;2.28;;;;;;;16.22;69.04;100615.44;5492706;26;19998;-45
2024/04/09 04:42:51;;;;;;;10.45;1.98;;;;;;;16.74;66.95;100621.75;5488352;26;20043;-44
2024/04/09 04:45:17;;;;;;;10.32;1.88;;;;;;;16.27;67.77;100623.31;5487163;26;20078;-46
2024/04/09 04:47:42;;;;;;;9.48;2.30;;;;;;;15.95;70.77;100628.97;5491475;26;19998;-45
2024/04/09 04:50:08;;;;;;;10.30;2.30;;;;;;;15.85;71.30;100624.72;5490301;26;19998;-45
2024/04/09 04:52:33;;;;;;;13.30;3.13;;;;;;;15.67;72.61;100617.06;5493250;26;19998;-43
2024/04/09 04:54:58;;;;;;;10.60;2.42;;;;;;;16.20;71.17;100619.00;5488706;26;20071;-44
2024/04/09 04:57:25;;;;;;;11.23;2.75;;;;;;;15.97;72.11;100610.56;5486182;26;20013;-47
2024/04/09 04:59:50;;;;;;;11.32;2.70;;;;;;;15.77;73.23;100626.56;5485442;26;19998;-45
2024/04/09 05:02:15;;;;;;;11.00;2.35;;;;;;;15.96;72.78;100636.00;5484479;26;20479;-45
2024/04/09 05:04:42;;;;;;;7.95;1.92;;;;;;;15.38;73.03;100641.84;5484980;26;20328;-47
2024/04/09 05:07:08;;;;;;;10.07;1.95;;;;;;;15.66;70.97;100633.72;5485575;26;20473;-46
2024/04/09 05:09:33;;;;;;;8.82;1.65;;;;;;;15.98;68.96;100630.72;5485644;26;20001;-48
2024/04/09 05:11:59;;;;;;;8.05;1.80;;;;;;;15.87;68.94;100636.09;5485865;26;20484;-45
2024/04/09 05:14:24;;;;;;;6.25;1.90;;;;;;;16.06;67.87;100639.34;5485718;26;20022;-45
2024/04/09 05:16:50;;;;;;;6.05;1.85;;;;;;;15.78;68.65;100634.44;5485832;26;20336;-46
2024/04/09 05:19:15;;;;;;;12.25;2.13;;;;;;;15.69;68.53;100625.78;5486450;26;20042;-45
2024/04/09 05:21:41;;;;;;;8.75;2.08;;;;;;;16.05;67.82;100627.97;5486032;26;20010;-44
2024/04/09 05:24:07;;;;;;;10.02;1.90;;;;;;;15.85;68.12;100618.59;5486548;26;20002;-46
2024/04/09 05:26:33;;;;;;;6.80;1.55;;;;;;;16.06;67.30;100615.69;5484862;26;19998;-43
2024/04/09 05:28:59;;;;;;;10.60;1.90;;;;;;;15.91;67.82;100629.03;5485724;26;20053;-47
2024/04/09 05:31:24;;;;;;;9.35;1.90;;;;;;;16.28;66.22;100619.78;5485693;26;20009;-48
2024/04/09 05:33:49;;;;;;;6.70;1.65;;;;;;;15.99;65.90;100642.94;5485120;26;20416;-45
2024/04/09 05:36:15;;;;;;;6.40;1.83;;;;;;;16.15;65.22;100642.75;5485391;26;19994;-45
2024/04/09 05:38:40;;;;;;;7.10;1.92;;;;;;;16.13;65.42;100639.25;5484521;26;20006;-46
2024/04/09 05:41:05;;;;;;;9.75;1.50;;;;;;;16.17;64.30;100633.06;5485571;26;20006;-46
2024/04/09 05:43:31;;;;;;;7.18;2.00;;;;;;;16.23;63.78;100611.06;5485183;26;20448;-45
2024/04/09 05:45:56;;;;;;;7.63;2.13;;;;;;;16.23;64.08;100613.69;5485450;26;20017;-45
2024/04/09 05:48:21;;;;;;;7.50;2.42;;;;;;;16.35;63.51;100617.91;5485774;26;20013;-44
2024/04/09 05:50:47;;;;;;;10.68;2.50;;;;;;;16.39;63.52;100615.25;5485245;26;20026;-47
2024/04/09 05:53:12;;;;;;;9.65;2.58;;;;;;;16.26;64.13;100618.06;5485006;26;19994;-47
2024/04/09 05:55:37;;;;;;;8.45;2.42;;;;;;;16.13;63.94;100612.97;5485204;26;20005;-44
2024/04/09 05:58:06;;;;;;;9.60;2.45;;;;;;;15.99;64.84;100624.53;5485370;26;20344;-44
2024/04/09 06:00:32;;;;;;;7.57;2.50;;;;;;;16.28;63.62;100627.69;5484776;26;20018;-46
2024/04/09 06:02:57;;;;;;;8.65;2.60;;;;;;;16.13;64.23;100625.25;5485104;26;20698;-47
2024/04/09 06:05:22;;;;;;;5.63;2.03;;;;;;;15.95;65.02;100634.25;5485049;26;20103;-45
2024/04/09 06:07:48;;;;;;;6.22;2.15;;;;;;;15.83;65.51;100639.66;5484954;26;20018;-45
2024/04/09 06:10:17;;;;;;;7.57;1.98;;;;;;;15.53;65.40;100637.38;5483969;26;19998;-45
2024/04/09 06:12:42;;;;;;;8.25;1.90;;;;;;;16.14;63.99;100640.13;5484813;26;19998;-45
2024/04/09 06:15:08;;;;;;;11.20;2.20;;;;;;;16.23;63.77;100640.00;5484546;26;20002;-42
2024/04/09 06:17:33;;;;;;;10.80;2.30;;;;;;;16.15;64.25;100626.09;5484149;26;20009;-45
2024/04/09 06:20:00;;;;;;;9.52;1.95;;;;;;;15.84;62.83;100641.41;5484499;26;20016;-45
2024/04/09 06:22:25;;;;;;;8.07;2.20;;;;;;;16.30;62.13;100627.63;5485638;26;20002;-47
2024/04/09 06:24:51;;;;;;;6.68;1.70;;;;;;;16.17;62.29;100621.66;5484584;26;20002;-44
2024/04/09 06:27:16;;;;;;;8.43;1.83;;;;;;;15.89;63.70;100626.44;5484650;26;20010;-44
2024/04/09 06:29:42;;;;;;;7.78;1.90;;;;;;;15.89;60.72;100617.66;5484828;26;20046;-47
2024/04/09 06:32:08;;;;;;;7.45;1.80;;;;;;;15.85;60.33;100615.97;5484764;26;20044;-46
2024/04/09 06:34:34;;;;;;;6.03;1.80;;;;;;;15.98;60.33;100622.81;5483921;26;20451;-47
2024/04/09 06:37:00;;;;;;;7.75;2.20;;;;;;;16.15;59.12;100632.25;5484264;26;19994;-48
2024/04/09 06:39:26;;;;;;;6.28;2.10;;;;;;;15.81;58.35;100642.28;5484976;26;20323;-44
2024/04/09 06:41:51;;;;;;;8.52;1.90;;;;;;;15.56;57.97;100643.44;5484564;26;20010;-45
2024/04/09 06:44:16;;;;;;;8.52;1.75;;;;;;;15.67;58.47;100659.13;5484723;26;20078;-44
2024/04/09 06:46:41;;;;;;;5.47;1.65;;;;;;;16.16;57.10;100630.47;5483926;26;20526;-48
2024/04/09 06:49:07;;;;;;;5.13;1.67;;;;;;;15.58;56.99;100631.16;5484282;26;20074;-44
2024/04/09 06:51:32;;;;;;;5.30;1.80;;;;;;;16.27;56.49;100625.06;5483723;26;19998;-45
2024/04/09 06:53:57;;;;;;;5.93;1.33;;;;;;;16.95;52.85;100617.03;5484941;26;20002;-47
2024/04/09 06:56:23;;;;;;;6.05;1.63;;;;;;;17.23;52.09;100614.78;5484252;26;20082;-44
2024/04/09 06:58:49;;;;;;;5.50;1.70;;;;;;;16.26;53.09;100628.59;5483712;26;20465;-44
2024/04/09 07:01:15;;;;;;;10.15;1.58;;;;;;;16.05;54.73;100625.34;5484718;26;20042;-47
2024/04/09 07:03:40;;;;;;;5.47;1.67;;;;;;;16.32;54.63;100634.63;5484141;26;20035;-47
2024/04/09 07:06:06;;;;;;;5.10;1.45;;;;;;;16.31;54.81;100640.78;5484761;26;19999;-45
2024/04/09 07:08:31;;;;;;;4.93;1.40;;;;;;;15.74;55.56;100650.25;5482243;26;20416;-46
2024/04/09 07:10:56;;;;;;;5.10;1.70;;;;;;;15.71;55.94;100642.41;5484259;26;20002;-45
2024/04/09 07:13:21;;;;;;;6.03;1.63;;;;;;;16.00;55.26;100647.31;5484288;26;20013;-45
2024/04/09 07:15:47;;;;;;;7.55;1.60;;;;;;;16.23;53.30;100648.75;5483216;26;20014;-47
2024/04/09 07:18:12;;;;;;;5.28;1.50;;;;;;;16.18;54.33;100658.47;5484209;26;20002;-44
2024/04/09 07:20:38;;;;;;;4.00;1.48;;;;;;;16.65;52.93;100664.03;5483447;26;20017;-44
2024/04/09 07:23:03;;;;;;;3.10;1.27;;;;;;;16.75;52.92;100677.03;5487342;26;20452;-44
2024/04/09 07:25:29;;;;;;;5.70;1.40;;;;;;;16.27;53.86;100680.31;5486577;26;20012;-45
2024/04/09 07:27:54;;;;;;;4.75;1.48;;;;;;;16.27;54.20;100694.34;5487059;26;20074;-46
2024/04/09 07:30:20;;;;;;;4.28;1.13;;;;;;;15.64;53.63;100693.28;5487143;26;19995;-48
2024/04/09 07:32:45;;;;;;;4.00;0.98;;;;;;;15.14;50.57;100683.22;5487085;26;20517;-46
2024/04/09 07:35:11;;;;;;;4.10;1.40;;;;;;;15.88;49.08;100684.28;5486996;26;20058;-46
2024/04/09 07:37:37;;;;;;;3.15;1.02;;;;;;;15.69;48.62;100688.84;5486701;26;20067;-44
2024/04/09 07:40:06;;;;;;;4.80;1.00;;;;;;;15.38;48.31;100690.88;5487302;26;20002;-49
2024/04/09 07:42:32;;;;;;;2.60;0.90;;;;;;;15.93;48.42;100708.75;5486718;26;20002;-47
2024/04/09 07:44:57;;;;;;;3.38;0.98;;;;;;;16.46;47.09;100721.28;5487315;26;20440;-47
2024/04/09 07:47:23;;;;;;;4.68;1.00;;;;;;;15.94;47.03;100702.59;5486871;26;20010;-45
2024/04/09 07:49:48;;;;;;;5.85;1.05;;;;;;;16.47;46.15;100712.47;5486719;26;20409;-46
2024/04/09 07:52:14;;;;;;;3.90;1.20;;;;;;;16.44;45.37;100718.66;5487409;26;19994;-45
2024/04/09 07:54:39;;;;;;;6.57;0.98;;;;;;;16.35;45.65;100708.25;5486676;26;20030;-46
2024/04/09 07:57:05;;;;;;;7.13;1.17;;;;;;;16.38;46.50;100702.94;5485032;26;20456;-45
2024/04/09 07:59:30;;;;;;;4.70;1.00;;;;;;;16.55;46.27;100708.84;5486365;26;20002;-46
2024/04/09 08:01:55;;;;;;;5.25;0.82;;;;;;;16.86;45.50;100709.31;5485428;26;20667;-45
2024/04/09 08:04:21;;;;;;;3.53;0.90;;;;;;;16.40;45.82;100714.34;5484959;26;20440;-44
2024/04/09 08:06:46;;;;;;;3.38;1.00;;;;;;;16.47;46.07;100723.88;5486546;26;20011;-45
2024/04/09 08:09:11;;;;;;;5.90;1.00;;;;;;;16.83;45.33;100717.25;5487246;26;20062;-47
2024/04/09 08:11:42;;;;;;;3.17;0.90;;;;;;;16.13;46.45;100725.19;5486169;26;20340;-45
2024/04/09 08:14:09;;;;;;;2.72;1.15;;;;;;;16.09;46.44;100724.34;5486688;26;20349;-46
2024/04/09 08:16:35;;;;;;;3.38;1.00;;;;;;;16.01;46.53;100720.06;5486128;26;20030;-47
2024/04/09 08:19:00;;;;;;;3.63;0.88;;;;;;;16.23;45.86;100711.91;5486616;26;20003;-45
2024/04/09 08:21:26;;;;;;;5.22;1.10;;;;;;;15.69;47.46;100725.66;5486917;26;20009;-46
2024/04/09 08:23:51;;;;;;;5.63;1.25;;;;;;;15.22;48.16;100733.94;5486050;26;20070;-46
2024/04/09 08:26:16;;;;;;;4.82;1.52;;;;;;;15.16;49.11;100742.72;5486673;26;20494;-46
2024/04/09 08:28:42;;;;;;;4.90;1.10;;;;;;;15.19;49.15;100739.19;5486072;26;19998;-48
2024/04/09 08:31:10;;;;;;;4.18;1.10;;;;;;;15.16;48.97;100734.84;5486295;26;20524;-46
2024/04/09 08:33:37;;;;;;;4.00;1.10;;;;;;;15.05;49.56;100743.69;5485247;26;20041;-45
2024/04/09 08:36:03;;;;;;;4.75;0.95;;;;;;;15.30;48.71;100740.00;5485803;26;20017;-48
2024/04/09 08:38:28;;;;;;;3.33;0.90;;;;;;;15.25;49.66;100754.91;5486067;26;20330;-46
2024/04/09 08:40:53;;;;;;;5.28;1.20;;;;;;;15.39;49.57;100746.03;5486629;26;20017;-47
2024/04/09 08:43:20;;;;;;;8.60;1.20;;;;;;;15.70;49.16;100737.91;5486281;26;20361;-48
2024/04/09 08:45:45;;;;;;;4.18;1.20;;;;;;;15.32;49.54;100746.09;5485938;26;20103;-47
2024/04/09 08:48:13;;;;;;;2.90;1.00;;;;;;;15.29;49.83;100754.00;5486706;26;20835;-42
2024/04/09 08:50:43;;;;;;;3.40;1.25;;;;;;;15.57;49.70;100760.81;5486788;26;19998;-47
2024/04/09 08:53:08;;;;;;;4.65;1.20;;;;;;;15.64;49.33;100759.00;5486979;26;20008;-47
2024/04/09 08:55:35;;;;;;;5.57;1.40;;;;;;;15.52;49.20;100777.47;5486221;26;20002;-47
2024/04/09 08:58:01;;;;;;;4.22;1.20;;;;;;;15.58;49.92;100773.06;5486699;26;20013;-46
2024/04/09 09:00:26;;;;;;;5.80;1.20;;;;;;;15.75;48.78;100771.16;5486234;26;19998;-47
2024/04/09 09:02:52;;;;;;;3.00;1.00;;;;;;;15.53;49.13;100784.50;5485969;26;20013;-45
2024/04/09 09:05:19;;;;;;;5.03;1.20;;;;;;;15.10;50.37;100783.91;5486184;26;20074;-46
2024/04/09 09:07:45;;;;;;;7.88;1.30;;;;;;;14.84;50.74;100789.31;5485381;26;20010;-46
2024/04/09 09:10:13;;;;;;;7.97;1.40;;;;;;;15.24;50.57;100782.06;5485960;26;20002;-48
2024/04/09 09:12:38;;;;;;;5.10;1.10;;;;;;;15.60;49.93;100787.06;5486699;26;20002;-43
2024/04/09 09:15:05;;;;;;;4.45;1.10;;;;;;;15.35;50.04;100780.22;5487227;26;20009;-46
2024/04/09 09:17:31;;;;;;;5.15;1.17;;;;;;;15.88;49.17;100792.94;5486257;26;20002;-48
2024/04/09 09:20:01;;;;;;;5.05;1.40;;;;;;;16.13;48.66;100777.78;5484416;26;20079;-45
2024/04/09 09:22:35;;;;;;;3.63;1.08;;;;;;;16.47;48.13;100778.25;5486132;26;20037;-46
2024/04/09 09:25:01;;;;;;;5.47;1.33;;;;;;;16.26;48.05;100779.41;5486470;26;20009;-45
2024/04/09 09:27:26;;;;;;;6.07;1.33;;;;;;;15.90;48.69;100791.16;5486495;26;20468;-48
2024/04/09 09:29:56;;;;;;;7.40;1.10;;;;;;;15.99;48.75;100777.91;5485827;26;20013;-45
2024/04/09 09:32:23;;;;;;;4.43;1.00;;;;;;;15.95;48.39;100772.72;5486263;26;20001;-48
2024/04/09 09:34:50;;;;;;;4.35;1.15;;;;;;;15.92;48.93;100784.13;5485736;26;20161;-46
2024/04/09 09:37:15;;;;;;;3.65;1.10;;;;;;;15.57;49.63;100773.94;5486575;26;20012;-44
2024/04/09 09:39:41;;;;;;;4.93;0.90;;;;;;;16.07;48.38;100776.09;5485716;26;20002;-45
2024/04/09 09:42:11;;;;;;;5.20;1.13;;;;;;;15.54;48.86;100786.25;5487430;26;20000;-47
2024/04/09 09:44:38;;;;;;;4.10;1.08;;;;;;;16.23;48.45;100789.94;5486434;26;20067;-44
2024/04/09 09:47:05;;;;;;;3.22;0.88;;;;;;;16.46;46.99;100777.41;5487059;26;20319;-46
2024/04/09 09:49:30;;;;;;;6.25;1.15;;;;;;;15.58;47.74;100780.06;5486419;26;19998;-46
2024/04/09 09:51:56;;;;;;;4.68;0.90;;;;;;;15.38;48.79;100785.44;5486885;26;20449;-43
2024/04/09 09:54:25;;;;;;;4.53;1.05;;;;;;;15.93;47.89;100785.88;5486763;26;19994;-43
2024/04/09 09:56:55;;;;;;;3.78;0.90;;;;;;;15.96;48.26;100785.84;5486581;26;20346;-45
2024/04/09 09:59:24;;;;;;;3.72;1.00;;;;;;;16.11;47.86;100780.41;5488711;26;19998;-44
2024/04/09 10:01:52;;;;;;;3.70;1.08;;;;;;;15.78;48.70;100783.41;5487734;26;20010;-46
2024/04/09 10:04:18;;;;;;;5.80;1.20;;;;;;;16.09;47.92;100781.34;5485097;26;20529;-49
2024/04/09 10:07:04;;;;;;;4.20;1.00;;;;;;;15.75;49.07;100781.66;5484285;26;19998;-48
2024/04/09 10:09:39;;;;;;;4.18;1.17;;;;;;;15.59;49.67;100794.97;5484563;26;20002;-48
2024/04/09 10:12:05;;;;;;;5.53;1.17;;;;;;;16.15;47.97;100790.03;5485203;26;20566;-45
2024/04/09 10:14:38;;;;;;;3.75;1.00;;;;;;;15.96;48.99;100777.09;5484300;26;20009;-44
2024/04/09 10:17:12;;;;;;;4.45;1.00;;;;;;;16.06;48.64;100782.22;5484658;26;19998;-47
2024/04/09 10:19:40;;;;;;;6.10;1.10;;;;;;;16.23;47.55;100788.19;5484935;26;20338;-47
2024/04/09 10:22:06;;;;;;;5.35;1.10;;;;;;;16.10;47.53;100775.19;5484932;26;20084;-46
2024/04/09 10:24:34;;;;;;;5.80;1.05;;;;;;;16.16;48.26;100773.34;5484626;26;20032;-49
2024/04/09 10:27:00;;;;;;;4.05;1.00;;;;;;;16.64;47.42;100776.34;5484640;26;20051;-48
2024/04/09 10:29:29;;;;;;;6.07;1.02;;;;;;;16.55;47.54;100774.66;5485542;26;20002;-44
2024/04/09 10:31:54;;;;;;;7.55;1.23;;;;;;;16.40;47.50;100787.13;5484475;26;20067;-46
2024/04/09 10:34:24;;;;;;;5.75;1.30;;;;;;;15.53;48.61;100781.88;5484953;26;20014;-44
2024/04/09 10:36:50;;;;;;;3.42;1.10;;;;;;;16.39;47.38;100804.69;5484582;26;20356;-45
2024/04/09 10:39:16;;;;;;;3.10;0.90;;;;;;;15.95;47.81;100791.13;5484050;26;20013;-46
2024/04/09 10:41:41;;;;;;;4.53;1.10;;;;;;;15.28;49.40;100797.78;5484082;26;19998;-45
2024/04/09 10:44:09;;;;;;;4.30;1.00;;;;;;;15.77;48.44;100800.06;5484467;26;19998;-49
2024/04/09 10:46:35;;;;;;;6.22;1.00;;;;;;;16.22;48.39;100790.84;5483756;26;20047;-45
2024/04/09 10:49:00;;;;;;;7.05;1.02;;;;;;;16.81;47.47;100789.28;5484657;26;20394;-47
2024/04/09 10:51:25;;;;;;;5.18;1.10;;;;;;;16.41;47.29;100795.00;5484551;26;20334;-49
2024/04/09 10:54:00;;;;;;;2.63;1.10;;;;;;;16.06;48.69;100771.72;5483908;26;20009;-49
2024/04/09 10:56:27;;;;;;;5.60;0.90;;;;;;;16.37;47.74;100797.69;5486522;26;20360;-46
2024/04/09 10:58:52;;;;;;;3.42;1.23;;;;;;;15.55;50.03;100804.63;5487290;26;19998;-43
2024/04/09 11:01:18;;;;;;;3.25;1.00;;;;;;;15.41;49.07;100795.94;5487571;26;20021;-50
2024/04/09 11:03:44;;;;;;;5.57;1.05;;;;;;;15.92;48.23;100810.41;5487351;26;19997;-44
2024/04/09 11:06:14;;;;;;;6.13;0.90;;;;;;;16.13;47.69;100804.09;5487359;26;20058;-47
2024/04/09 11:08:39;;;;;;;3.55;1.00;;;;;;;16.51;46.88;100827.34;5487165;26;20073;-46
2024/04/09 11:11:05;;;;;;;7.75;1.00;;;;;;;16.07;47.07;100815.53;5487680;26;20006;-47
2024/04/09 11:13:31;;;;;;;2.83;0.90;;;;;;;15.48;49.04;100800.28;5487295;26;20062;-50
2024/04/09 11:15:57;;;;;;;2.00;0.80;;;;;;;16.18;47.55;100821.56;5487188;26;20026;-49
2024/04/09 11:18:22;;;;;;;3.00;0.80;;;;;;;16.40;47.04;100816.94;5487526;26;20017;-50
2024/04/09 11:20:55;;;;;;;4.80;1.20;;;;;;;16.41;46.89;100831.81;5486825;26;20013;-46